Williamsfield, OH

4:45 AM EDT on May 28, 2015 (GMT -0400)
Ashtabula County | | Change Station
CLOSE
Current Station
Airport
Location: Ashtabula,
Elevation: 922 ft
Nearby Weather Stations

Elev 922 ft 41.78 °N, 80.70 °W | Updated 6 minutes ago

Overcast
Overcast
63 °F
Feels Like 63 °F
N
6
Wind Variable Wind from NW

Today
High -- | Low -- °F
--% Chance of Precip.
Yesterday
High -- | Low -- °F
Precip. -- in
5:53 AM 8:46 PM
Waxing Gibbous, 74% visible
Pressure 30.18 in
Visibility 8.0 miles
Clouds Scattered Clouds 900 ft
Scattered Clouds 1300 ft
Overcast 1900 ft
Dew Point 61 °F
Humidity 93%
Rainfall 0.00 in
Snow Depth Not available.
UV 0 out of 12
Pollen 8.80 out of 12
Air Quality Not available.
Flu Activity Local Activity
SPECI KHZY 280839Z AUTO 32005KT 8SM SCT009 SCT013 OVC019 17/16 A3018 RMK AO2 T01720161

More Conditions Fewer Conditions

Pressure 30.18 in
Visibility 8.0 miles
Clouds Scattered Clouds 900 ft
Scattered Clouds 1300 ft
Overcast 1900 ft
Dew Point 61 °F
Humidity 93%
Rainfall 0.00 in
Snow Depth Not available.
UV 0 out of 12
Pollen 8.80 out of 12
Air Quality Not available.
Flu Activity Local Activity
SPECI KHZY 280839Z AUTO 32005KT 8SM SCT009 SCT013 OVC019 17/16 A3018 RMK AO2 T01720161

More Conditions Fewer Conditions

10-Day Weather Forecast

Almanac

Astronomy

May. 28, 2015 Rise Set
Actual Time
Civil Twilight
Nautical Twilight
Astronomical Twilight
Moon
Length of Visible Light
Length of Day
Tomorrow will be .
, % of the Moon is Illuminated

Today's Extremes

State Highs State Lows

Community

WunderPhotos

Upload Photos

1,824,935 photos uploaded!

WunderBlogs® & News

Nearby

Air Quality

  Air Quality AQ Index Pollutant
Not available.

Snow Depth

Station Depth Elevation

Earthquake Activity

City Distance Mag. Time & Date
Minimum magnitude displayed is 2.5.

Coastal Water Temperatures

Place Temperature

Stations

Nearby Weather Stations

Station Location Temp. Windchill Dew Point Humidity Wind Precip. Elev Updated Type